Napier, New Zealand
Current Conditions -  °F | °C
As of 7:00 PM on Sunday 21 Dec 2014 (Local Time) from NZWN Reporting Station
Scattered Clouds Scattered Clouds  
Wind Chill: 64°   Ceiling: Unl
Heat Index: 64°   Visibility: 6mi
Dew Point: 57°   Wind: 24mph
Humidity: 77%   Direction: 10°N
Pressure: 29.83"   Gusts: NA
Location:  39.49°S, 176.92°E
Report Text: NZWN 210600Z AUTO 01021KT 9999 SCT020/// 18/14 Q1010 NOSIG
Loading
Personal Weather Stations






























Interactive Weather Map New forecast layout! Learn more

10-Day Weather Forecast

Advertisements
Track Severe Weather on mobile